sensor_id;sensor_type;location;lat;lon;timestamp;temperature;humidity
15343;DHT22;7771;48.478;8.936;2023-04-25T00:01:24;10.40;99.90
15343;DHT22;7771;48.478;8.936;2023-04-25T00:03:51;10.30;99.90
15343;DHT22;7771;48.478;8.936;2023-04-25T00:06:19;10.40;99.90
15343;DHT22;7771;48.478;8.936;2023-04-25T00:08:45;10.40;99.90
15343;DHT22;7771;48.478;8.936;2023-04-25T00:11:12;10.30;99.90
15343;DHT22;7771;48.478;8.936;2023-04-25T00:13:39;10.30;99.90
15343;DHT22;7771;48.478;8.936;2023-04-25T00:16:06;10.30;99.90
15343;DHT22;7771;48.478;8.936;2023-04-25T00:18:33;10.40;99.90
15343;DHT22;7771;48.478;8.936;2023-04-25T00:21:00;10.40;99.90
15343;DHT22;7771;48.478;8.936;2023-04-25T00:23:27;10.40;99.90
15343;DHT22;7771;48.478;8.936;2023-04-25T00:25:55;10.40;99.90
15343;DHT22;7771;48.478;8.936;2023-04-25T00:28:22;10.40;99.90
15343;DHT22;7771;48.478;8.936;2023-04-25T00:30:49;10.40;99.90
15343;DHT22;7771;48.478;8.936;2023-04-25T00:33:16;10.30;99.90
15343;DHT22;7771;48.478;8.936;2023-04-25T00:35:43;10.30;99.90
15343;DHT22;7771;48.478;8.936;2023-04-25T00:38:10;10.30;99.90
15343;DHT22;7771;48.478;8.936;2023-04-25T00:40:38;10.30;99.90
15343;DHT22;7771;48.478;8.936;2023-04-25T00:43:05;10.30;99.90
15343;DHT22;7771;48.478;8.936;2023-04-25T00:45:31;10.30;99.90
15343;DHT22;7771;48.478;8.936;2023-04-25T00:47:59;10.30;99.90
15343;DHT22;7771;48.478;8.936;2023-04-25T00:50:26;10.30;99.90
15343;DHT22;7771;48.478;8.936;2023-04-25T00:52:54;10.30;99.90
15343;DHT22;7771;48.478;8.936;2023-04-25T00:55:21;10.30;99.90
15343;DHT22;7771;48.478;8.936;2023-04-25T00:57:48;10.30;99.90
15343;DHT22;7771;48.478;8.936;2023-04-25T01:00:15;10.30;99.90
15343;DHT22;7771;48.478;8.936;2023-04-25T01:02:42;10.30;99.90
15343;DHT22;7771;48.478;8.936;2023-04-25T01:05:09;10.30;99.90
15343;DHT22;7771;48.478;8.936;2023-04-25T01:07:36;10.30;99.90
15343;DHT22;7771;48.478;8.936;2023-04-25T01:10:04;10.30;99.90
15343;DHT22;7771;48.478;8.936;2023-04-25T01:12:30;10.30;99.90
15343;DHT22;7771;48.478;8.936;2023-04-25T01:14:57;10.30;99.90
15343;DHT22;7771;48.478;8.936;2023-04-25T01:17:23;10.20;99.90
15343;DHT22;7771;48.478;8.936;2023-04-25T01:19:50;10.30;99.90
15343;DHT22;7771;48.478;8.936;2023-04-25T01:22:17;10.20;99.90
15343;DHT22;7771;48.478;8.936;2023-04-25T01:24:44;10.30;99.90
15343;DHT22;7771;48.478;8.936;2023-04-25T01:27:12;10.20;99.90
15343;DHT22;7771;48.478;8.936;2023-04-25T01:29:39;10.20;99.90
15343;DHT22;7771;48.478;8.936;2023-04-25T01:34:34;10.20;99.90
15343;DHT22;7771;48.478;8.936;2023-04-25T01:37:02;10.20;99.90
15343;DHT22;7771;48.478;8.936;2023-04-25T01:41:58;10.20;99.90
15343;DHT22;7771;48.478;8.936;2023-04-25T01:44:26;10.20;99.90
15343;DHT22;7771;48.478;8.936;2023-04-25T01:46:53;10.20;99.90
15343;DHT22;7771;48.478;8.936;2023-04-25T01:49:21;10.20;99.90
15343;DHT22;7771;48.478;8.936;2023-04-25T01:51:47;10.20;99.90
15343;DHT22;7771;48.478;8.936;2023-04-25T01:56:42;10.20;99.90
15343;DHT22;7771;48.478;8.936;2023-04-25T01:59:10;10.30;99.90
15343;DHT22;7771;48.478;8.936;2023-04-25T02:01:37;10.30;99.90
15343;DHT22;7771;48.478;8.936;2023-04-25T02:04:05;10.30;99.90
15343;DHT22;7771;48.478;8.936;2023-04-25T02:09:01;10.20;99.90
15343;DHT22;7771;48.478;8.936;2023-04-25T02:11:28;10.20;99.90
15343;DHT22;7771;48.478;8.936;2023-04-25T02:13:54;10.10;99.90
15343;DHT22;7771;48.478;8.936;2023-04-25T02:16:22;10.10;99.90
15343;DHT22;7771;48.478;8.936;2023-04-25T02:18:48;10.10;99.90
15343;DHT22;7771;48.478;8.936;2023-04-25T02:21:16;10.00;99.90
15343;DHT22;7771;48.478;8.936;2023-04-25T02:23:44;9.90;99.90
15343;DHT22;7771;48.478;8.936;2023-04-25T02:26:10;9.90;99.90
15343;DHT22;7771;48.478;8.936;2023-04-25T02:28:38;9.80;99.90
15343;DHT22;7771;48.478;8.936;2023-04-25T02:31:05;9.80;99.90
15343;DHT22;7771;48.478;8.936;2023-04-25T02:33:33;9.70;99.90
15343;DHT22;7771;48.478;8.936;2023-04-25T02:36:00;9.70;99.90
15343;DHT22;7771;48.478;8.936;2023-04-25T02:38:28;9.70;99.90
15343;DHT22;7771;48.478;8.936;2023-04-25T02:40:55;9.60;99.90
15343;DHT22;7771;48.478;8.936;2023-04-25T02:43:22;9.60;99.90
15343;DHT22;7771;48.478;8.936;2023-04-25T02:45:49;9.60;99.90
15343;DHT22;7771;48.478;8.936;2023-04-25T02:48:15;9.60;99.90
15343;DHT22;7771;48.478;8.936;2023-04-25T02:50:43;9.50;99.90
15343;DHT22;7771;48.478;8.936;2023-04-25T02:53:09;9.50;99.90
15343;DHT22;7771;48.478;8.936;2023-04-25T02:55:37;9.50;99.90
15343;DHT22;7771;48.478;8.936;2023-04-25T02:58:04;9.50;99.90
15343;DHT22;7771;48.478;8.936;2023-04-25T03:02:58;9.40;99.90
15343;DHT22;7771;48.478;8.936;2023-04-25T03:05:26;9.40;99.90
15343;DHT22;7771;48.478;8.936;2023-04-25T03:07:52;9.40;99.90
15343;DHT22;7771;48.478;8.936;2023-04-25T03:10:20;9.40;99.90
15343;DHT22;7771;48.478;8.936;2023-04-25T03:12:46;9.40;99.90
15343;DHT22;7771;48.478;8.936;2023-04-25T03:17:41;9.50;99.90
15343;DHT22;7771;48.478;8.936;2023-04-25T03:20:09;9.40;99.90
15343;DHT22;7771;48.478;8.936;2023-04-25T03:22:36;9.40;99.90
15343;DHT22;7771;48.478;8.936;2023-04-25T03:25:03;9.40;99.90
15343;DHT22;7771;48.478;8.936;2023-04-25T03:29:58;9.50;99.90
15343;DHT22;7771;48.478;8.936;2023-04-25T03:34:55;9.50;99.90
15343;DHT22;7771;48.478;8.936;2023-04-25T03:37:21;9.40;99.90
15343;DHT22;7771;48.478;8.936;2023-04-25T03:39:48;9.40;99.90
15343;DHT22;7771;48.478;8.936;2023-04-25T03:42:15;9.40;99.90
15343;DHT22;7771;48.478;8.936;2023-04-25T03:44:42;9.30;99.90
15343;DHT22;7771;48.478;8.936;2023-04-25T03:49:37;9.30;99.90
15343;DHT22;7771;48.478;8.936;2023-04-25T03:52:04;9.30;99.90
15343;DHT22;7771;48.478;8.936;2023-04-25T03:56:58;9.20;99.90
15343;DHT22;7771;48.478;8.936;2023-04-25T04:01:54;9.20;99.90
15343;DHT22;7771;48.478;8.936;2023-04-25T04:04:21;9.20;99.90
15343;DHT22;7771;48.478;8.936;2023-04-25T04:06:48;9.20;99.90
15343;DHT22;7771;48.478;8.936;2023-04-25T04:09:14;9.20;99.90
15343;DHT22;7771;48.478;8.936;2023-04-25T04:11:43;9.20;99.90
15343;DHT22;7771;48.478;8.936;2023-04-25T04:14:10;9.20;99.90
15343;DHT22;7771;48.478;8.936;2023-04-25T04:16:37;9.20;99.90
15343;DHT22;7771;48.478;8.936;2023-04-25T04:19:03;9.20;99.90
15343;DHT22;7771;48.478;8.936;2023-04-25T04:21:30;9.20;99.90
15343;DHT22;7771;48.478;8.936;2023-04-25T04:23:59;9.20;99.90
15343;DHT22;7771;48.478;8.936;2023-04-25T04:26:27;9.20;99.90
15343;DHT22;7771;48.478;8.936;2023-04-25T04:28:53;9.20;99.90
15343;DHT22;7771;48.478;8.936;2023-04-25T04:31:22;9.20;99.90
15343;DHT22;7771;48.478;8.936;2023-04-25T04:33:48;9.20;99.90
15343;DHT22;7771;48.478;8.936;2023-04-25T04:36:15;9.20;99.90
15343;DHT22;7771;48.478;8.936;2023-04-25T04:38:42;9.20;99.90
15343;DHT22;7771;48.478;8.936;2023-04-25T04:43:38;9.20;99.90
15343;DHT22;7771;48.478;8.936;2023-04-25T04:46:05;9.20;99.90
15343;DHT22;7771;48.478;8.936;2023-04-25T04:48:33;9.20;99.90
15343;DHT22;7771;48.478;8.936;2023-04-25T04:51:00;9.30;99.90
15343;DHT22;7771;48.478;8.936;2023-04-25T04:53:28;9.30;99.90
15343;DHT22;7771;48.478;8.936;2023-04-25T04:58:24;9.30;99.90
15343;DHT22;7771;48.478;8.936;2023-04-25T05:00:52;9.30;99.90
15343;DHT22;7771;48.478;8.936;2023-04-25T05:05:46;9.30;99.90
15343;DHT22;7771;48.478;8.936;2023-04-25T05:08:13;9.20;99.90
15343;DHT22;7771;48.478;8.936;2023-04-25T05:10:41;9.30;99.90
15343;DHT22;7771;48.478;8.936;2023-04-25T05:13:08;9.40;99.90
15343;DHT22;7771;48.478;8.936;2023-04-25T05:15:35;9.40;99.90
15343;DHT22;7771;48.478;8.936;2023-04-25T05:18:03;9.50;99.90
15343;DHT22;7771;48.478;8.936;2023-04-25T05:20:30;9.60;99.90
15343;DHT22;7771;48.478;8.936;2023-04-25T05:22:59;9.70;99.90
15343;DHT22;7771;48.478;8.936;2023-04-25T05:25:27;9.80;99.90
15343;DHT22;7771;48.478;8.936;2023-04-25T05:27:53;9.80;99.90
15343;DHT22;7771;48.478;8.936;2023-04-25T05:30:21;9.80;99.90
15343;DHT22;7771;48.478;8.936;2023-04-25T05:32:48;9.90;99.90
15343;DHT22;7771;48.478;8.936;2023-04-25T05:40:11;10.00;99.90
15343;DHT22;7771;48.478;8.936;2023-04-25T05:42:39;10.00;99.90
15343;DHT22;7771;48.478;8.936;2023-04-25T05:45:06;10.00;99.90
15343;DHT22;7771;48.478;8.936;2023-04-25T05:47:33;10.10;99.90
15343;DHT22;7771;48.478;8.936;2023-04-25T05:50:00;10.10;99.90
15343;DHT22;7771;48.478;8.936;2023-04-25T05:52:28;10.20;99.90
15343;DHT22;7771;48.478;8.936;2023-04-25T05:54:54;10.20;99.90
15343;DHT22;7771;48.478;8.936;2023-04-25T05:57:22;10.20;99.90
15343;DHT22;7771;48.478;8.936;2023-04-25T05:59:48;10.20;99.90
15343;DHT22;7771;48.478;8.936;2023-04-25T06:02:16;10.20;99.90
15343;DHT22;7771;48.478;8.936;2023-04-25T06:04:42;10.20;99.90
15343;DHT22;7771;48.478;8.936;2023-04-25T06:07:09;10.30;99.90
15343;DHT22;7771;48.478;8.936;2023-04-25T06:09:36;10.30;99.90
15343;DHT22;7771;48.478;8.936;2023-04-25T06:12:05;10.30;99.90
15343;DHT22;7771;48.478;8.936;2023-04-25T06:14:31;10.30;99.90
15343;DHT22;7771;48.478;8.936;2023-04-25T06:16:59;10.30;99.90
15343;DHT22;7771;48.478;8.936;2023-04-25T06:19:27;10.30;99.90
15343;DHT22;7771;48.478;8.936;2023-04-25T06:21:53;10.30;99.90
15343;DHT22;7771;48.478;8.936;2023-04-25T06:24:21;10.40;99.90
15343;DHT22;7771;48.478;8.936;2023-04-25T06:29:15;10.40;99.90
15343;DHT22;7771;48.478;8.936;2023-04-25T06:34:11;10.40;99.90
15343;DHT22;7771;48.478;8.936;2023-04-25T06:36:38;10.40;99.90
15343;DHT22;7771;48.478;8.936;2023-04-25T06:39:05;10.40;99.90
15343;DHT22;7771;48.478;8.936;2023-04-25T06:41:33;10.50;99.90
15343;DHT22;7771;48.478;8.936;2023-04-25T06:44:00;10.50;99.90
15343;DHT22;7771;48.478;8.936;2023-04-25T06:46:27;10.50;99.90
15343;DHT22;7771;48.478;8.936;2023-04-25T06:48:54;10.50;99.90
15343;DHT22;7771;48.478;8.936;2023-04-25T06:51:20;10.50;99.90
15343;DHT22;7771;48.478;8.936;2023-04-25T06:53:47;10.50;99.90
15343;DHT22;7771;48.478;8.936;2023-04-25T06:56:15;10.50;99.90
15343;DHT22;7771;48.478;8.936;2023-04-25T06:58:42;10.50;99.90
15343;DHT22;7771;48.478;8.936;2023-04-25T07:01:10;10.50;99.90
15343;DHT22;7771;48.478;8.936;2023-04-25T07:03:37;10.50;99.90
15343;DHT22;7771;48.478;8.936;2023-04-25T07:06:03;10.60;99.90
15343;DHT22;7771;48.478;8.936;2023-04-25T07:08:30;10.70;99.90
15343;DHT22;7771;48.478;8.936;2023-04-25T07:10:57;10.80;99.90
15343;DHT22;7771;48.478;8.936;2023-04-25T07:13:23;10.80;99.90
15343;DHT22;7771;48.478;8.936;2023-04-25T07:15:51;10.80;99.90
15343;DHT22;7771;48.478;8.936;2023-04-25T07:18:19;10.80;99.90
15343;DHT22;7771;48.478;8.936;2023-04-25T07:20:46;10.70;99.90
15343;DHT22;7771;48.478;8.936;2023-04-25T07:23:14;10.70;99.90
15343;DHT22;7771;48.478;8.936;2023-04-25T07:25:41;10.80;99.90
15343;DHT22;7771;48.478;8.936;2023-04-25T07:28:08;10.80;99.90
15343;DHT22;7771;48.478;8.936;2023-04-25T07:33:03;10.80;99.90
15343;DHT22;7771;48.478;8.936;2023-04-25T07:40:28;10.80;99.90
15343;DHT22;7771;48.478;8.936;2023-04-25T07:42:56;10.80;99.90
15343;DHT22;7771;48.478;8.936;2023-04-25T07:45:22;10.80;99.90
15343;DHT22;7771;48.478;8.936;2023-04-25T07:47:49;10.80;99.90
15343;DHT22;7771;48.478;8.936;2023-04-25T07:50:16;10.80;99.90
15343;DHT22;7771;48.478;8.936;2023-04-25T07:52:43;10.80;99.90
15343;DHT22;7771;48.478;8.936;2023-04-25T07:55:10;10.80;99.90
15343;DHT22;7771;48.478;8.936;2023-04-25T07:57:41;10.80;99.90
15343;DHT22;7771;48.478;8.936;2023-04-25T08:00:09;10.70;99.90
15343;DHT22;7771;48.478;8.936;2023-04-25T08:02:37;10.70;99.90
15343;DHT22;7771;48.478;8.936;2023-04-25T08:05:04;10.70;99.90
15343;DHT22;7771;48.478;8.936;2023-04-25T08:07:31;10.70;99.90
15343;DHT22;7771;48.478;8.936;2023-04-25T08:09:59;10.70;99.90
15343;DHT22;7771;48.478;8.936;2023-04-25T08:12:27;10.60;99.90
15343;DHT22;7771;48.478;8.936;2023-04-25T08:14:53;10.60;99.90
15343;DHT22;7771;48.478;8.936;2023-04-25T08:17:20;10.60;99.90
15343;DHT22;7771;48.478;8.936;2023-04-25T08:19:47;10.60;99.90
15343;DHT22;7771;48.478;8.936;2023-04-25T08:22:14;10.60;99.90
15343;DHT22;7771;48.478;8.936;2023-04-25T08:24:41;10.60;99.90
15343;DHT22;7771;48.478;8.936;2023-04-25T08:27:08;10.60;99.90
15343;DHT22;7771;48.478;8.936;2023-04-25T08:29:35;10.60;99.90
15343;DHT22;7771;48.478;8.936;2023-04-25T08:32:02;10.70;99.90
15343;DHT22;7771;48.478;8.936;2023-04-25T08:34:30;10.70;99.90
15343;DHT22;7771;48.478;8.936;2023-04-25T08:36:56;10.80;99.90
15343;DHT22;7771;48.478;8.936;2023-04-25T08:39:24;10.70;99.90
15343;DHT22;7771;48.478;8.936;2023-04-25T08:41:52;10.70;99.90
15343;DHT22;7771;48.478;8.936;2023-04-25T08:44:20;10.70;99.90
15343;DHT22;7771;48.478;8.936;2023-04-25T08:46:47;10.70;99.90
15343;DHT22;7771;48.478;8.936;2023-04-25T08:49:14;10.80;99.90
15343;DHT22;7771;48.478;8.936;2023-04-25T08:51:44;10.60;99.90
15343;DHT22;7771;48.478;8.936;2023-04-25T08:54:09;10.50;99.90
15343;DHT22;7771;48.478;8.936;2023-04-25T08:59:05;10.20;99.90
15343;DHT22;7771;48.478;8.936;2023-04-25T09:01:31;10.20;99.90
15343;DHT22;7771;48.478;8.936;2023-04-25T09:03:59;10.10;99.90
15343;DHT22;7771;48.478;8.936;2023-04-25T09:06:27;10.10;99.90
15343;DHT22;7771;48.478;8.936;2023-04-25T09:08:54;10.00;99.90
15343;DHT22;7771;48.478;8.936;2023-04-25T09:11:21;10.00;99.90
15343;DHT22;7771;48.478;8.936;2023-04-25T09:13:48;9.90;99.90
15343;DHT22;7771;48.478;8.936;2023-04-25T09:16:15;9.90;99.90
15343;DHT22;7771;48.478;8.936;2023-04-25T09:21:10;9.80;99.90
15343;DHT22;7771;48.478;8.936;2023-04-25T09:26:08;9.70;99.90
15343;DHT22;7771;48.478;8.936;2023-04-25T09:31:03;9.50;99.90
15343;DHT22;7771;48.478;8.936;2023-04-25T09:33:31;9.40;99.90
15343;DHT22;7771;48.478;8.936;2023-04-25T09:36:02;9.30;99.90
15343;DHT22;7771;48.478;8.936;2023-04-25T09:38:29;9.20;99.90
15343;DHT22;7771;48.478;8.936;2023-04-25T09:40:56;9.10;99.90
15343;DHT22;7771;48.478;8.936;2023-04-25T09:43:23;9.00;99.90
15343;DHT22;7771;48.478;8.936;2023-04-25T09:45:50;8.90;99.90
15343;DHT22;7771;48.478;8.936;2023-04-25T09:48:18;8.90;99.90
15343;DHT22;7771;48.478;8.936;2023-04-25T09:50:44;8.90;99.90
15343;DHT22;7771;48.478;8.936;2023-04-25T09:55:39;8.90;99.90
15343;DHT22;7771;48.478;8.936;2023-04-25T10:00:34;8.90;99.90
15343;DHT22;7771;48.478;8.936;2023-04-25T10:03:10;8.90;99.90
15343;DHT22;7771;48.478;8.936;2023-04-25T10:08:05;8.90;99.90
15343;DHT22;7771;48.478;8.936;2023-04-25T10:10:32;8.90;99.90
15343;DHT22;7771;48.478;8.936;2023-04-25T10:12:58;8.90;99.90
15343;DHT22;7771;48.478;8.936;2023-04-25T10:17:53;8.80;99.90
15343;DHT22;7771;48.478;8.936;2023-04-25T10:20:20;8.70;99.90
15343;DHT22;7771;48.478;8.936;2023-04-25T10:22:46;8.70;99.90
15343;DHT22;7771;48.478;8.936;2023-04-25T10:25:14;8.60;99.90
15343;DHT22;7771;48.478;8.936;2023-04-25T10:30:09;8.70;99.90
15343;DHT22;7771;48.478;8.936;2023-04-25T10:32:37;8.70;99.90
15343;DHT22;7771;48.478;8.936;2023-04-25T10:35:17;8.80;99.90
15343;DHT22;7771;48.478;8.936;2023-04-25T10:37:58;8.90;99.90
15343;DHT22;7771;48.478;8.936;2023-04-25T10:40:24;9.00;99.90
15343;DHT22;7771;48.478;8.936;2023-04-25T10:42:52;9.10;99.90
15343;DHT22;7771;48.478;8.936;2023-04-25T10:45:19;9.20;99.90
15343;DHT22;7771;48.478;8.936;2023-04-25T10:47:46;9.30;99.90
15343;DHT22;7771;48.478;8.936;2023-04-25T10:50:15;9.40;99.90
15343;DHT22;7771;48.478;8.936;2023-04-25T10:55:11;9.50;99.90
15343;DHT22;7771;48.478;8.936;2023-04-25T10:57:41;9.60;99.90
15343;DHT22;7771;48.478;8.936;2023-04-25T11:02:46;9.60;99.90
15343;DHT22;7771;48.478;8.936;2023-04-25T11:05:17;9.60;99.90
15343;DHT22;7771;48.478;8.936;2023-04-25T11:10:12;9.80;99.90
15343;DHT22;7771;48.478;8.936;2023-04-25T11:12:38;9.80;99.90
15343;DHT22;7771;48.478;8.936;2023-04-25T11:15:07;9.80;99.90
15343;DHT22;7771;48.478;8.936;2023-04-25T11:17:34;9.80;99.90
15343;DHT22;7771;48.478;8.936;2023-04-25T11:20:02;9.90;99.90
15343;DHT22;7771;48.478;8.936;2023-04-25T11:22:30;9.90;99.90
15343;DHT22;7771;48.478;8.936;2023-04-25T11:27:24;9.80;99.90
15343;DHT22;7771;48.478;8.936;2023-04-25T11:32:20;10.10;99.90
15343;DHT22;7771;48.478;8.936;2023-04-25T11:34:46;10.20;99.90
15343;DHT22;7771;48.478;8.936;2023-04-25T11:37:13;10.30;99.90
15343;DHT22;7771;48.478;8.936;2023-04-25T11:42:09;10.60;99.90
15343;DHT22;7771;48.478;8.936;2023-04-25T11:44:35;10.70;99.90
15343;DHT22;7771;48.478;8.936;2023-04-25T11:47:03;10.80;99.90
15343;DHT22;7771;48.478;8.936;2023-04-25T11:49:30;10.90;99.90
15343;DHT22;7771;48.478;8.936;2023-04-25T11:54:25;11.00;99.90
15343;DHT22;7771;48.478;8.936;2023-04-25T11:56:52;11.10;99.90
15343;DHT22;7771;48.478;8.936;2023-04-25T11:59:22;11.10;99.90
15343;DHT22;7771;48.478;8.936;2023-04-25T12:01:48;11.20;99.90
15343;DHT22;7771;48.478;8.936;2023-04-25T12:04:18;11.30;99.90
15343;DHT22;7771;48.478;8.936;2023-04-25T12:06:50;11.50;99.90
15343;DHT22;7771;48.478;8.936;2023-04-25T12:09:18;11.60;99.90
15343;DHT22;7771;48.478;8.936;2023-04-25T12:11:43;11.70;99.90
15343;DHT22;7771;48.478;8.936;2023-04-25T12:19:07;12.00;99.90
15343;DHT22;7771;48.478;8.936;2023-04-25T12:21:34;12.10;99.90
15343;DHT22;7771;48.478;8.936;2023-04-25T12:24:14;12.10;99.90
15343;DHT22;7771;48.478;8.936;2023-04-25T12:26:50;12.10;99.90
15343;DHT22;7771;48.478;8.936;2023-04-25T12:29:18;12.10;99.90
15343;DHT22;7771;48.478;8.936;2023-04-25T12:31:44;12.20;99.90
15343;DHT22;7771;48.478;8.936;2023-04-25T12:34:11;12.10;99.90
15343;DHT22;7771;48.478;8.936;2023-04-25T12:36:38;12.00;99.90
15343;DHT22;7771;48.478;8.936;2023-04-25T12:46:29;11.90;99.90
15343;DHT22;7771;48.478;8.936;2023-04-25T12:51:24;11.90;99.90
15343;DHT22;7771;48.478;8.936;2023-04-25T12:53:51;11.80;99.90
15343;DHT22;7771;48.478;8.936;2023-04-25T12:56:19;11.60;99.90
15343;DHT22;7771;48.478;8.936;2023-04-25T12:58:47;11.60;99.90
15343;DHT22;7771;48.478;8.936;2023-04-25T13:01:14;11.50;99.90
15343;DHT22;7771;48.478;8.936;2023-04-25T13:03:41;11.40;99.90
15343;DHT22;7771;48.478;8.936;2023-04-25T13:06:08;11.50;99.90
15343;DHT22;7771;48.478;8.936;2023-04-25T13:08:36;11.50;99.90
15343;DHT22;7771;48.478;8.936;2023-04-25T13:11:04;11.50;99.90
15343;DHT22;7771;48.478;8.936;2023-04-25T13:13:32;11.40;99.90
15343;DHT22;7771;48.478;8.936;2023-04-25T13:16:01;11.40;99.90
15343;DHT22;7771;48.478;8.936;2023-04-25T13:18:29;11.40;99.90
15343;DHT22;7771;48.478;8.936;2023-04-25T13:20:56;11.40;99.90
15343;DHT22;7771;48.478;8.936;2023-04-25T13:23:24;11.50;99.90
15343;DHT22;7771;48.478;8.936;2023-04-25T13:25:50;11.50;99.90
15343;DHT22;7771;48.478;8.936;2023-04-25T13:28:18;11.60;99.90
15343;DHT22;7771;48.478;8.936;2023-04-25T13:30:45;11.70;99.90
15343;DHT22;7771;48.478;8.936;2023-04-25T13:33:11;11.80;99.90
15343;DHT22;7771;48.478;8.936;2023-04-25T13:35:39;11.90;99.90
15343;DHT22;7771;48.478;8.936;2023-04-25T13:40:47;11.90;99.90
15343;DHT22;7771;48.478;8.936;2023-04-25T13:43:14;12.00;99.90
15343;DHT22;7771;48.478;8.936;2023-04-25T13:45:41;12.00;99.90
15343;DHT22;7771;48.478;8.936;2023-04-25T13:48:08;12.10;99.90
15343;DHT22;7771;48.478;8.936;2023-04-25T13:50:35;12.20;99.90
15343;DHT22;7771;48.478;8.936;2023-04-25T13:53:02;12.20;99.90
15343;DHT22;7771;48.478;8.936;2023-04-25T13:57:56;12.30;99.90
15343;DHT22;7771;48.478;8.936;2023-04-25T14:00:24;12.40;99.90
15343;DHT22;7771;48.478;8.936;2023-04-25T14:02:52;12.50;99.90
15343;DHT22;7771;48.478;8.936;2023-04-25T14:05:18;12.60;99.90
15343;DHT22;7771;48.478;8.936;2023-04-25T14:07:46;12.70;99.90
15343;DHT22;7771;48.478;8.936;2023-04-25T14:10:12;12.80;99.90
15343;DHT22;7771;48.478;8.936;2023-04-25T14:12:39;12.80;99.90
15343;DHT22;7771;48.478;8.936;2023-04-25T14:15:07;12.80;99.90
15343;DHT22;7771;48.478;8.936;2023-04-25T14:17:35;12.90;99.90
15343;DHT22;7771;48.478;8.936;2023-04-25T14:20:02;12.90;99.90
15343;DHT22;7771;48.478;8.936;2023-04-25T14:22:29;13.00;99.90
15343;DHT22;7771;48.478;8.936;2023-04-25T14:24:57;13.00;99.90
15343;DHT22;7771;48.478;8.936;2023-04-25T14:27:23;13.00;99.90
15343;DHT22;7771;48.478;8.936;2023-04-25T14:29:50;13.00;99.90
15343;DHT22;7771;48.478;8.936;2023-04-25T14:32:17;13.00;99.90
15343;DHT22;7771;48.478;8.936;2023-04-25T14:34:45;13.00;99.90
15343;DHT22;7771;48.478;8.936;2023-04-25T14:37:11;13.00;99.90
15343;DHT22;7771;48.478;8.936;2023-04-25T14:39:39;13.10;99.90
15343;DHT22;7771;48.478;8.936;2023-04-25T14:44:33;13.30;99.90
15343;DHT22;7771;48.478;8.936;2023-04-25T14:47:01;13.30;99.90
15343;DHT22;7771;48.478;8.936;2023-04-25T14:49:28;13.40;99.90
15343;DHT22;7771;48.478;8.936;2023-04-25T14:51:54;13.40;99.90
15343;DHT22;7771;48.478;8.936;2023-04-25T14:54:22;13.40;99.90
15343;DHT22;7771;48.478;8.936;2023-04-25T14:56:48;13.40;99.90
15343;DHT22;7771;48.478;8.936;2023-04-25T14:59:16;13.40;99.90
15343;DHT22;7771;48.478;8.936;2023-04-25T15:01:43;13.40;99.90
15343;DHT22;7771;48.478;8.936;2023-04-25T15:04:10;13.30;99.90
15343;DHT22;7771;48.478;8.936;2023-04-25T15:09:04;13.10;99.90
15343;DHT22;7771;48.478;8.936;2023-04-25T15:11:31;13.00;99.90
15343;DHT22;7771;48.478;8.936;2023-04-25T15:13:58;13.00;99.90
15343;DHT22;7771;48.478;8.936;2023-04-25T15:16:25;12.90;99.90
15343;DHT22;7771;48.478;8.936;2023-04-25T15:18:52;12.90;99.90
15343;DHT22;7771;48.478;8.936;2023-04-25T15:21:19;12.80;99.90
15343;DHT22;7771;48.478;8.936;2023-04-25T15:23:45;12.70;99.90
15343;DHT22;7771;48.478;8.936;2023-04-25T15:26:12;12.70;99.90
15343;DHT22;7771;48.478;8.936;2023-04-25T15:28:39;12.70;99.90
15343;DHT22;7771;48.478;8.936;2023-04-25T15:31:07;12.60;99.90
15343;DHT22;7771;48.478;8.936;2023-04-25T15:33:34;12.50;99.90
15343;DHT22;7771;48.478;8.936;2023-04-25T15:36:01;12.50;99.90
15343;DHT22;7771;48.478;8.936;2023-04-25T15:38:27;12.40;99.90
15343;DHT22;7771;48.478;8.936;2023-04-25T15:40:56;12.40;99.90
15343;DHT22;7771;48.478;8.936;2023-04-25T15:45:52;12.30;99.90
15343;DHT22;7771;48.478;8.936;2023-04-25T15:48:20;12.30;99.90
15343;DHT22;7771;48.478;8.936;2023-04-25T15:50:46;12.20;99.90
15343;DHT22;7771;48.478;8.936;2023-04-25T15:53:14;12.30;99.90
15343;DHT22;7771;48.478;8.936;2023-04-25T15:55:42;12.30;99.90
15343;DHT22;7771;48.478;8.936;2023-04-25T15:58:09;12.30;99.90
15343;DHT22;7771;48.478;8.936;2023-04-25T16:00:36;12.30;99.90
15343;DHT22;7771;48.478;8.936;2023-04-25T16:03:02;12.30;99.90
15343;DHT22;7771;48.478;8.936;2023-04-25T16:05:30;12.30;99.90
15343;DHT22;7771;48.478;8.936;2023-04-25T16:07:57;12.30;99.90
15343;DHT22;7771;48.478;8.936;2023-04-25T16:10:24;12.30;99.90
15343;DHT22;7771;48.478;8.936;2023-04-25T16:12:51;12.40;99.90
15343;DHT22;7771;48.478;8.936;2023-04-25T16:15:19;12.40;99.90
15343;DHT22;7771;48.478;8.936;2023-04-25T16:17:46;12.50;99.90
15343;DHT22;7771;48.478;8.936;2023-04-25T16:20:13;12.50;99.90
15343;DHT22;7771;48.478;8.936;2023-04-25T16:22:40;12.50;99.90
15343;DHT22;7771;48.478;8.936;2023-04-25T16:25:06;12.50;99.90
15343;DHT22;7771;48.478;8.936;2023-04-25T16:27:34;12.40;99.90
15343;DHT22;7771;48.478;8.936;2023-04-25T16:30:01;12.40;99.90
15343;DHT22;7771;48.478;8.936;2023-04-25T16:32:28;12.30;99.90
15343;DHT22;7771;48.478;8.936;2023-04-25T16:34:54;12.20;99.90
15343;DHT22;7771;48.478;8.936;2023-04-25T16:39:50;12.00;99.90
15343;DHT22;7771;48.478;8.936;2023-04-25T16:42:17;12.00;99.90
15343;DHT22;7771;48.478;8.936;2023-04-25T16:44:44;11.90;99.90
15343;DHT22;7771;48.478;8.936;2023-04-25T16:49:40;11.70;99.90
15343;DHT22;7771;48.478;8.936;2023-04-25T16:52:06;11.70;99.90
15343;DHT22;7771;48.478;8.936;2023-04-25T16:54:33;11.70;99.90
15343;DHT22;7771;48.478;8.936;2023-04-25T16:57:00;11.60;99.90
15343;DHT22;7771;48.478;8.936;2023-04-25T16:59:28;11.60;99.90
15343;DHT22;7771;48.478;8.936;2023-04-25T17:01:54;11.40;99.90
15343;DHT22;7771;48.478;8.936;2023-04-25T17:04:21;11.50;99.90
15343;DHT22;7771;48.478;8.936;2023-04-25T17:06:48;11.50;99.90
15343;DHT22;7771;48.478;8.936;2023-04-25T17:09:15;11.50;99.90
15343;DHT22;7771;48.478;8.936;2023-04-25T17:11:43;11.40;99.90
15343;DHT22;7771;48.478;8.936;2023-04-25T17:16:39;11.40;99.90
15343;DHT22;7771;48.478;8.936;2023-04-25T17:19:05;11.30;99.90
15343;DHT22;7771;48.478;8.936;2023-04-25T17:21:32;11.30;99.90
15343;DHT22;7771;48.478;8.936;2023-04-25T17:23:59;11.40;99.90
15343;DHT22;7771;48.478;8.936;2023-04-25T17:28:54;11.30;99.90
15343;DHT22;7771;48.478;8.936;2023-04-25T17:31:21;11.30;99.90
15343;DHT22;7771;48.478;8.936;2023-04-25T17:33:48;11.30;99.90
15343;DHT22;7771;48.478;8.936;2023-04-25T17:36:14;11.30;99.90
15343;DHT22;7771;48.478;8.936;2023-04-25T17:38:42;11.30;99.90
15343;DHT22;7771;48.478;8.936;2023-04-25T17:41:09;11.30;99.90
15343;DHT22;7771;48.478;8.936;2023-04-25T17:43:36;11.30;99.90
15343;DHT22;7771;48.478;8.936;2023-04-25T17:46:04;11.30;99.90
15343;DHT22;7771;48.478;8.936;2023-04-25T17:48:30;11.30;99.90
15343;DHT22;7771;48.478;8.936;2023-04-25T17:50:58;11.30;99.90
15343;DHT22;7771;48.478;8.936;2023-04-25T17:53:25;11.20;99.90
15343;DHT22;7771;48.478;8.936;2023-04-25T17:55:52;11.20;99.90
15343;DHT22;7771;48.478;8.936;2023-04-25T17:58:19;11.20;99.90